sensor_id;sensor_type;location;lat;lon;timestamp;P1;durP1;ratioP1;P2;durP2;ratioP2
39776;SDS011;25453;48.162;14.510;2023-07-20T00:00:59;3.65;;;1.55;;
39776;SDS011;25453;48.162;14.510;2023-07-20T00:03:26;3.22;;;1.42;;
39776;SDS011;25453;48.162;14.510;2023-07-20T00:05:54;3.33;;;1.70;;
39776;SDS011;25453;48.162;14.510;2023-07-20T00:08:21;2.85;;;1.42;;
39776;SDS011;25453;48.162;14.510;2023-07-20T00:10:50;4.13;;;1.90;;
39776;SDS011;25453;48.162;14.510;2023-07-20T00:13:17;5.65;;;1.70;;
39776;SDS011;25453;48.162;14.510;2023-07-20T00:15:45;3.65;;;1.70;;
39776;SDS011;25453;48.162;14.510;2023-07-20T00:18:13;3.08;;;1.55;;
39776;SDS011;25453;48.162;14.510;2023-07-20T00:20:40;4.43;;;1.60;;
39776;SDS011;25453;48.162;14.510;2023-07-20T00:23:07;3.33;;;1.50;;
39776;SDS011;25453;48.162;14.510;2023-07-20T00:25:34;3.13;;;1.83;;
39776;SDS011;25453;48.162;14.510;2023-07-20T00:28:02;3.35;;;1.83;;
39776;SDS011;25453;48.162;14.510;2023-07-20T00:30:29;3.35;;;1.45;;
39776;SDS011;25453;48.162;14.510;2023-07-20T00:32:56;2.42;;;1.40;;
39776;SDS011;25453;48.162;14.510;2023-07-20T00:35:24;3.13;;;1.35;;
39776;SDS011;25453;48.162;14.510;2023-07-20T00:37:51;3.65;;;1.98;;
39776;SDS011;25453;48.162;14.510;2023-07-20T00:40:18;3.00;;;1.48;;
39776;SDS011;25453;48.162;14.510;2023-07-20T00:42:45;2.55;;;1.30;;
39776;SDS011;25453;48.162;14.510;2023-07-20T00:45:12;3.72;;;1.95;;
39776;SDS011;25453;48.162;14.510;2023-07-20T00:47:39;3.03;;;1.55;;
39776;SDS011;25453;48.162;14.510;2023-07-20T00:50:07;3.30;;;1.70;;
39776;SDS011;25453;48.162;14.510;2023-07-20T00:52:35;3.15;;;1.75;;
39776;SDS011;25453;48.162;14.510;2023-07-20T00:55:08;2.70;;;1.55;;
39776;SDS011;25453;48.162;14.510;2023-07-20T00:57:36;3.38;;;1.40;;
39776;SDS011;25453;48.162;14.510;2023-07-20T01:00:04;3.50;;;1.80;;
39776;SDS011;25453;48.162;14.510;2023-07-20T01:02:32;4.40;;;1.40;;
39776;SDS011;25453;48.162;14.510;2023-07-20T01:05:00;5.32;;;1.95;;
39776;SDS011;25453;48.162;14.510;2023-07-20T01:07:32;3.22;;;1.73;;
39776;SDS011;25453;48.162;14.510;2023-07-20T01:10:22;3.13;;;1.50;;
39776;SDS011;25453;48.162;14.510;2023-07-20T01:13:07;4.45;;;1.83;;
39776;SDS011;25453;48.162;14.510;2023-07-20T01:15:37;3.38;;;1.80;;
39776;SDS011;25453;48.162;14.510;2023-07-20T01:18:05;3.58;;;1.88;;
39776;SDS011;25453;48.162;14.510;2023-07-20T01:20:33;4.82;;;2.35;;
39776;SDS011;25453;48.162;14.510;2023-07-20T01:31:41;5.95;;;1.77;;
39776;SDS011;25453;48.162;14.510;2023-07-20T01:34:09;3.72;;;1.92;;
39776;SDS011;25453;48.162;14.510;2023-07-20T01:36:43;3.85;;;2.10;;
39776;SDS011;25453;48.162;14.510;2023-07-20T01:39:12;4.10;;;1.90;;
39776;SDS011;25453;48.162;14.510;2023-07-20T01:41:40;5.15;;;2.17;;
39776;SDS011;25453;48.162;14.510;2023-07-20T01:44:08;3.78;;;2.00;;
39776;SDS011;25453;48.162;14.510;2023-07-20T01:46:36;4.55;;;1.90;;
39776;SDS011;25453;48.162;14.510;2023-07-20T01:49:04;4.03;;;2.17;;
39776;SDS011;25453;48.162;14.510;2023-07-20T01:51:31;3.15;;;1.95;;
39776;SDS011;25453;48.162;14.510;2023-07-20T01:53:58;3.63;;;1.90;;
39776;SDS011;25453;48.162;14.510;2023-07-20T01:56:26;2.97;;;1.58;;
39776;SDS011;25453;48.162;14.510;2023-07-20T01:58:53;5.13;;;1.95;;
39776;SDS011;25453;48.162;14.510;2023-07-20T02:01:20;3.17;;;1.40;;
39776;SDS011;25453;48.162;14.510;2023-07-20T02:03:48;3.08;;;1.77;;
39776;SDS011;25453;48.162;14.510;2023-07-20T02:06:15;3.50;;;1.63;;
39776;SDS011;25453;48.162;14.510;2023-07-20T02:08:42;3.70;;;1.73;;
39776;SDS011;25453;48.162;14.510;2023-07-20T02:11:09;2.67;;;1.40;;
39776;SDS011;25453;48.162;14.510;2023-07-20T02:13:36;3.28;;;1.40;;
39776;SDS011;25453;48.162;14.510;2023-07-20T02:16:03;2.20;;;1.48;;
39776;SDS011;25453;48.162;14.510;2023-07-20T02:18:32;3.13;;;1.42;;
39776;SDS011;25453;48.162;14.510;2023-07-20T02:20:59;2.92;;;1.25;;
39776;SDS011;25453;48.162;14.510;2023-07-20T02:23:27;2.70;;;1.25;;
39776;SDS011;25453;48.162;14.510;2023-07-20T02:25:54;2.58;;;1.20;;
39776;SDS011;25453;48.162;14.510;2023-07-20T02:28:21;1.85;;;1.05;;
39776;SDS011;25453;48.162;14.510;2023-07-20T02:30:48;2.30;;;1.15;;
39776;SDS011;25453;48.162;14.510;2023-07-20T02:33:16;3.13;;;1.67;;
39776;SDS011;25453;48.162;14.510;2023-07-20T02:35:43;4.68;;;1.83;;
39776;SDS011;25453;48.162;14.510;2023-07-20T02:38:10;3.55;;;1.45;;
39776;SDS011;25453;48.162;14.510;2023-07-20T02:40:38;4.68;;;1.77;;
39776;SDS011;25453;48.162;14.510;2023-07-20T02:43:05;3.65;;;1.73;;
39776;SDS011;25453;48.162;14.510;2023-07-20T02:45:32;3.78;;;1.75;;
39776;SDS011;25453;48.162;14.510;2023-07-20T02:47:59;3.88;;;1.67;;
39776;SDS011;25453;48.162;14.510;2023-07-20T02:50:27;2.53;;;1.48;;
39776;SDS011;25453;48.162;14.510;2023-07-20T02:52:54;2.45;;;1.40;;
39776;SDS011;25453;48.162;14.510;2023-07-20T02:55:22;3.17;;;1.73;;
39776;SDS011;25453;48.162;14.510;2023-07-20T02:57:49;2.95;;;1.58;;
39776;SDS011;25453;48.162;14.510;2023-07-20T03:00:16;2.88;;;1.42;;
39776;SDS011;25453;48.162;14.510;2023-07-20T03:02:46;3.10;;;1.48;;
39776;SDS011;25453;48.162;14.510;2023-07-20T03:05:19;2.65;;;1.55;;
39776;SDS011;25453;48.162;14.510;2023-07-20T03:07:47;3.30;;;1.40;;
39776;SDS011;25453;48.162;14.510;2023-07-20T03:10:14;3.15;;;1.35;;
39776;SDS011;25453;48.162;14.510;2023-07-20T03:12:41;3.17;;;1.52;;
39776;SDS011;25453;48.162;14.510;2023-07-20T03:15:08;2.35;;;1.27;;
39776;SDS011;25453;48.162;14.510;2023-07-20T03:17:36;2.55;;;1.35;;
39776;SDS011;25453;48.162;14.510;2023-07-20T03:20:04;3.13;;;1.38;;
39776;SDS011;25453;48.162;14.510;2023-07-20T03:22:35;2.22;;;1.25;;
39776;SDS011;25453;48.162;14.510;2023-07-20T03:25:03;2.78;;;1.20;;
39776;SDS011;25453;48.162;14.510;2023-07-20T03:27:31;2.33;;;1.20;;
39776;SDS011;25453;48.162;14.510;2023-07-20T03:29:58;3.17;;;1.38;;
39776;SDS011;25453;48.162;14.510;2023-07-20T03:32:26;3.35;;;1.25;;
39776;SDS011;25453;48.162;14.510;2023-07-20T03:34:53;3.60;;;1.55;;
39776;SDS011;25453;48.162;14.510;2023-07-20T03:37:21;2.83;;;1.33;;
39776;SDS011;25453;48.162;14.510;2023-07-20T03:39:48;3.30;;;1.42;;
39776;SDS011;25453;48.162;14.510;2023-07-20T03:42:15;3.72;;;1.52;;
39776;SDS011;25453;48.162;14.510;2023-07-20T03:44:42;4.88;;;1.80;;
39776;SDS011;25453;48.162;14.510;2023-07-20T03:47:10;2.58;;;1.30;;
39776;SDS011;25453;48.162;14.510;2023-07-20T03:49:37;2.70;;;1.33;;
39776;SDS011;25453;48.162;14.510;2023-07-20T03:52:04;2.55;;;1.45;;
39776;SDS011;25453;48.162;14.510;2023-07-20T03:54:31;2.67;;;1.40;;
39776;SDS011;25453;48.162;14.510;2023-07-20T03:56:59;3.60;;;1.50;;
39776;SDS011;25453;48.162;14.510;2023-07-20T03:59:27;2.65;;;1.35;;
39776;SDS011;25453;48.162;14.510;2023-07-20T04:01:54;3.92;;;1.60;;
39776;SDS011;25453;48.162;14.510;2023-07-20T04:04:21;2.78;;;1.58;;
39776;SDS011;25453;48.162;14.510;2023-07-20T04:06:48;2.50;;;1.38;;
39776;SDS011;25453;48.162;14.510;2023-07-20T04:09:16;2.55;;;1.20;;
39776;SDS011;25453;48.162;14.510;2023-07-20T04:11:43;2.75;;;1.38;;
39776;SDS011;25453;48.162;14.510;2023-07-20T04:14:10;3.13;;;1.73;;
39776;SDS011;25453;48.162;14.510;2023-07-20T04:16:37;2.42;;;1.40;;
39776;SDS011;25453;48.162;14.510;2023-07-20T04:19:04;2.92;;;1.38;;
39776;SDS011;25453;48.162;14.510;2023-07-20T04:21:32;3.97;;;1.52;;
39776;SDS011;25453;48.162;14.510;2023-07-20T04:23:59;3.50;;;1.60;;
39776;SDS011;25453;48.162;14.510;2023-07-20T04:26:26;2.28;;;1.42;;
39776;SDS011;25453;48.162;14.510;2023-07-20T04:28:53;2.35;;;1.35;;
39776;SDS011;25453;48.162;14.510;2023-07-20T04:31:20;2.45;;;1.40;;
39776;SDS011;25453;48.162;14.510;2023-07-20T04:33:48;2.88;;;1.50;;
39776;SDS011;25453;48.162;14.510;2023-07-20T04:36:15;4.38;;;1.70;;
39776;SDS011;25453;48.162;14.510;2023-07-20T04:38:46;2.33;;;0.90;;
39776;SDS011;25453;48.162;14.510;2023-07-20T04:41:13;2.83;;;1.50;;
39776;SDS011;25453;48.162;14.510;2023-07-20T04:43:42;2.55;;;1.40;;
39776;SDS011;25453;48.162;14.510;2023-07-20T04:46:10;4.18;;;1.45;;
39776;SDS011;25453;48.162;14.510;2023-07-20T04:48:38;2.92;;;1.40;;
39776;SDS011;25453;48.162;14.510;2023-07-20T04:51:07;3.22;;;1.67;;
39776;SDS011;25453;48.162;14.510;2023-07-20T04:53:34;3.42;;;1.50;;
39776;SDS011;25453;48.162;14.510;2023-07-20T04:56:01;2.65;;;1.30;;
39776;SDS011;25453;48.162;14.510;2023-07-20T04:58:28;3.33;;;1.42;;
39776;SDS011;25453;48.162;14.510;2023-07-20T05:00:56;2.33;;;1.13;;
39776;SDS011;25453;48.162;14.510;2023-07-20T05:03:23;2.38;;;1.10;;
39776;SDS011;25453;48.162;14.510;2023-07-20T05:05:50;2.10;;;1.25;;
39776;SDS011;25453;48.162;14.510;2023-07-20T05:08:17;2.50;;;1.08;;
39776;SDS011;25453;48.162;14.510;2023-07-20T05:10:44;2.58;;;1.05;;
39776;SDS011;25453;48.162;14.510;2023-07-20T05:13:11;2.38;;;1.00;;
39776;SDS011;25453;48.162;14.510;2023-07-20T05:15:39;2.17;;;1.25;;
39776;SDS011;25453;48.162;14.510;2023-07-20T05:18:06;2.33;;;0.90;;
39776;SDS011;25453;48.162;14.510;2023-07-20T05:20:34;3.85;;;1.25;;
39776;SDS011;25453;48.162;14.510;2023-07-20T05:23:02;2.70;;;1.30;;
39776;SDS011;25453;48.162;14.510;2023-07-20T05:25:29;2.60;;;1.38;;
39776;SDS011;25453;48.162;14.510;2023-07-20T05:27:57;3.55;;;1.17;;
39776;SDS011;25453;48.162;14.510;2023-07-20T05:30:24;1.30;;;0.85;;
39776;SDS011;25453;48.162;14.510;2023-07-20T05:32:51;2.17;;;1.10;;
39776;SDS011;25453;48.162;14.510;2023-07-20T05:35:21;1.65;;;0.75;;
39776;SDS011;25453;48.162;14.510;2023-07-20T05:37:52;2.20;;;1.08;;
39776;SDS011;25453;48.162;14.510;2023-07-20T05:40:19;2.65;;;1.30;;
39776;SDS011;25453;48.162;14.510;2023-07-20T05:42:47;1.50;;;0.93;;
39776;SDS011;25453;48.162;14.510;2023-07-20T05:45:18;2.22;;;1.10;;
39776;SDS011;25453;48.162;14.510;2023-07-20T05:47:49;2.42;;;1.27;;
39776;SDS011;25453;48.162;14.510;2023-07-20T05:50:16;3.00;;;1.48;;
39776;SDS011;25453;48.162;14.510;2023-07-20T05:52:46;2.60;;;1.38;;
39776;SDS011;25453;48.162;14.510;2023-07-20T05:55:14;2.55;;;1.30;;
39776;SDS011;25453;48.162;14.510;2023-07-20T05:57:42;3.33;;;1.73;;
39776;SDS011;25453;48.162;14.510;2023-07-20T06:00:10;2.85;;;1.38;;
39776;SDS011;25453;48.162;14.510;2023-07-20T06:02:41;4.15;;;2.00;;
39776;SDS011;25453;48.162;14.510;2023-07-20T06:05:08;3.50;;;1.70;;
39776;SDS011;25453;48.162;14.510;2023-07-20T06:07:38;3.60;;;2.13;;
39776;SDS011;25453;48.162;14.510;2023-07-20T06:10:06;4.05;;;2.08;;
39776;SDS011;25453;48.162;14.510;2023-07-20T06:12:33;3.75;;;2.10;;
39776;SDS011;25453;48.162;14.510;2023-07-20T06:15:04;3.22;;;1.80;;
39776;SDS011;25453;48.162;14.510;2023-07-20T06:17:33;6.00;;;2.08;;
39776;SDS011;25453;48.162;14.510;2023-07-20T06:20:00;3.17;;;1.77;;
39776;SDS011;25453;48.162;14.510;2023-07-20T06:22:28;3.38;;;1.50;;
39776;SDS011;25453;48.162;14.510;2023-07-20T06:24:55;3.25;;;1.90;;
39776;SDS011;25453;48.162;14.510;2023-07-20T06:27:22;3.67;;;2.00;;
39776;SDS011;25453;48.162;14.510;2023-07-20T06:29:50;3.42;;;1.88;;
39776;SDS011;25453;48.162;14.510;2023-07-20T06:32:17;3.35;;;1.77;;
39776;SDS011;25453;48.162;14.510;2023-07-20T06:34:44;3.40;;;1.80;;
39776;SDS011;25453;48.162;14.510;2023-07-20T06:37:11;6.25;;;2.53;;
39776;SDS011;25453;48.162;14.510;2023-07-20T06:39:38;3.55;;;1.73;;
39776;SDS011;25453;48.162;14.510;2023-07-20T06:42:08;4.45;;;2.03;;
39776;SDS011;25453;48.162;14.510;2023-07-20T06:44:35;3.00;;;1.73;;
39776;SDS011;25453;48.162;14.510;2023-07-20T06:47:03;5.63;;;2.33;;
39776;SDS011;25453;48.162;14.510;2023-07-20T06:49:30;4.45;;;2.50;;
39776;SDS011;25453;48.162;14.510;2023-07-20T06:51:57;4.60;;;2.30;;
39776;SDS011;25453;48.162;14.510;2023-07-20T06:54:25;3.42;;;2.00;;
39776;SDS011;25453;48.162;14.510;2023-07-20T06:56:52;4.45;;;2.05;;
39776;SDS011;25453;48.162;14.510;2023-07-20T06:59:22;3.33;;;1.92;;
39776;SDS011;25453;48.162;14.510;2023-07-20T07:01:51;5.45;;;2.50;;
39776;SDS011;25453;48.162;14.510;2023-07-20T07:04:18;4.10;;;2.35;;
39776;SDS011;25453;48.162;14.510;2023-07-20T07:06:46;4.47;;;2.10;;
39776;SDS011;25453;48.162;14.510;2023-07-20T07:09:13;6.07;;;2.97;;
39776;SDS011;25453;48.162;14.510;2023-07-20T07:11:40;4.22;;;2.33;;
39776;SDS011;25453;48.162;14.510;2023-07-20T07:14:08;4.28;;;2.35;;
39776;SDS011;25453;48.162;14.510;2023-07-20T07:16:35;3.75;;;2.22;;
39776;SDS011;25453;48.162;14.510;2023-07-20T07:19:04;3.97;;;1.90;;
39776;SDS011;25453;48.162;14.510;2023-07-20T07:21:32;6.55;;;3.05;;
39776;SDS011;25453;48.162;14.510;2023-07-20T07:23:59;4.63;;;2.55;;
39776;SDS011;25453;48.162;14.510;2023-07-20T07:26:26;3.40;;;1.90;;
39776;SDS011;25453;48.162;14.510;2023-07-20T07:28:53;5.25;;;2.45;;
39776;SDS011;25453;48.162;14.510;2023-07-20T07:31:21;5.15;;;2.65;;
39776;SDS011;25453;48.162;14.510;2023-07-20T07:33:48;4.32;;;2.50;;
39776;SDS011;25453;48.162;14.510;2023-07-20T07:36:15;3.53;;;1.73;;
39776;SDS011;25453;48.162;14.510;2023-07-20T07:38:42;4.22;;;2.58;;
39776;SDS011;25453;48.162;14.510;2023-07-20T07:41:13;4.13;;;2.28;;
39776;SDS011;25453;48.162;14.510;2023-07-20T07:43:41;5.38;;;2.22;;
39776;SDS011;25453;48.162;14.510;2023-07-20T07:46:08;4.18;;;2.15;;
39776;SDS011;25453;48.162;14.510;2023-07-20T07:48:35;4.18;;;1.90;;
39776;SDS011;25453;48.162;14.510;2023-07-20T07:51:02;4.32;;;1.90;;
39776;SDS011;25453;48.162;14.510;2023-07-20T07:53:29;3.25;;;1.60;;
39776;SDS011;25453;48.162;14.510;2023-07-20T07:55:56;4.47;;;2.13;;
39776;SDS011;25453;48.162;14.510;2023-07-20T07:58:24;2.88;;;1.70;;
39776;SDS011;25453;48.162;14.510;2023-07-20T08:00:51;5.35;;;1.88;;
39776;SDS011;25453;48.162;14.510;2023-07-20T08:03:18;4.30;;;2.10;;
39776;SDS011;25453;48.162;14.510;2023-07-20T08:05:46;3.97;;;2.13;;
39776;SDS011;25453;48.162;14.510;2023-07-20T08:08:13;3.22;;;1.80;;
39776;SDS011;25453;48.162;14.510;2023-07-20T08:10:40;3.72;;;2.05;;
39776;SDS011;25453;48.162;14.510;2023-07-20T08:13:07;4.47;;;1.90;;
39776;SDS011;25453;48.162;14.510;2023-07-20T08:15:34;5.38;;;2.20;;
39776;SDS011;25453;48.162;14.510;2023-07-20T08:18:01;4.55;;;2.22;;
39776;SDS011;25453;48.162;14.510;2023-07-20T08:20:29;4.45;;;1.83;;
39776;SDS011;25453;48.162;14.510;2023-07-20T08:22:58;3.40;;;2.03;;
39776;SDS011;25453;48.162;14.510;2023-07-20T08:25:26;3.58;;;1.98;;
39776;SDS011;25453;48.162;14.510;2023-07-20T08:27:53;3.75;;;2.10;;
39776;SDS011;25453;48.162;14.510;2023-07-20T08:30:21;4.03;;;1.92;;
39776;SDS011;25453;48.162;14.510;2023-07-20T08:32:50;3.70;;;2.28;;
39776;SDS011;25453;48.162;14.510;2023-07-20T08:35:17;2.35;;;1.65;;
39776;SDS011;25453;48.162;14.510;2023-07-20T08:37:48;3.80;;;2.10;;
39776;SDS011;25453;48.162;14.510;2023-07-20T08:40:16;2.90;;;1.70;;
39776;SDS011;25453;48.162;14.510;2023-07-20T08:42:44;3.10;;;1.70;;
39776;SDS011;25453;48.162;14.510;2023-07-20T08:45:12;3.75;;;1.83;;
39776;SDS011;25453;48.162;14.510;2023-07-20T08:47:40;4.35;;;1.70;;
39776;SDS011;25453;48.162;14.510;2023-07-20T08:50:10;4.15;;;1.98;;
39776;SDS011;25453;48.162;14.510;2023-07-20T08:52:39;5.65;;;1.92;;
39776;SDS011;25453;48.162;14.510;2023-07-20T08:55:06;3.60;;;1.80;;
39776;SDS011;25453;48.162;14.510;2023-07-20T08:57:34;4.55;;;2.25;;
39776;SDS011;25453;48.162;14.510;2023-07-20T09:00:03;3.65;;;1.52;;
39776;SDS011;25453;48.162;14.510;2023-07-20T09:02:38;3.05;;;1.75;;
39776;SDS011;25453;48.162;14.510;2023-07-20T09:05:10;4.07;;;1.63;;
39776;SDS011;25453;48.162;14.510;2023-07-20T09:07:38;2.75;;;1.55;;
39776;SDS011;25453;48.162;14.510;2023-07-20T09:10:06;5.22;;;1.65;;
39776;SDS011;25453;48.162;14.510;2023-07-20T09:12:37;4.28;;;1.80;;
39776;SDS011;25453;48.162;14.510;2023-07-20T09:15:07;3.28;;;1.60;;
39776;SDS011;25453;48.162;14.510;2023-07-20T09:17:35;3.40;;;1.50;;
39776;SDS011;25453;48.162;14.510;2023-07-20T09:20:05;5.05;;;1.75;;
39776;SDS011;25453;48.162;14.510;2023-07-20T09:22:40;3.90;;;1.30;;
39776;SDS011;25453;48.162;14.510;2023-07-20T09:25:11;2.60;;;1.55;;
39776;SDS011;25453;48.162;14.510;2023-07-20T09:27:50;2.90;;;1.58;;
39776;SDS011;25453;48.162;14.510;2023-07-20T09:30:18;2.72;;;1.60;;
39776;SDS011;25453;48.162;14.510;2023-07-20T09:32:46;5.28;;;1.77;;
39776;SDS011;25453;48.162;14.510;2023-07-20T09:35:18;1.95;;;1.17;;
39776;SDS011;25453;48.162;14.510;2023-07-20T09:37:59;4.20;;;1.73;;
39776;SDS011;25453;48.162;14.510;2023-07-20T09:40:30;3.38;;;1.55;;
39776;SDS011;25453;48.162;14.510;2023-07-20T09:43:07;5.28;;;2.10;;
39776;SDS011;25453;48.162;14.510;2023-07-20T09:45:41;3.38;;;1.77;;
39776;SDS011;25453;48.162;14.510;2023-07-20T09:48:12;5.40;;;1.73;;
39776;SDS011;25453;48.162;14.510;2023-07-20T09:50:43;3.30;;;1.60;;
39776;SDS011;25453;48.162;14.510;2023-07-20T09:53:17;3.53;;;1.70;;
39776;SDS011;25453;48.162;14.510;2023-07-20T09:55:45;2.45;;;1.30;;
39776;SDS011;25453;48.162;14.510;2023-07-20T09:58:14;4.20;;;1.80;;
39776;SDS011;25453;48.162;14.510;2023-07-20T10:00:42;3.47;;;1.38;;
39776;SDS011;25453;48.162;14.510;2023-07-20T10:03:18;3.60;;;1.40;;
39776;SDS011;25453;48.162;14.510;2023-07-20T10:06:05;3.55;;;1.40;;
39776;SDS011;25453;48.162;14.510;2023-07-20T10:08:38;2.50;;;1.58;;
39776;SDS011;25453;48.162;14.510;2023-07-20T10:13:39;3.92;;;1.55;;
39776;SDS011;25453;48.162;14.510;2023-07-20T10:16:12;3.67;;;1.33;;
39776;SDS011;25453;48.162;14.510;2023-07-20T10:19:05;2.38;;;1.58;;
39776;SDS011;25453;48.162;14.510;2023-07-20T10:21:47;3.38;;;1.70;;
39776;SDS011;25453;48.162;14.510;2023-07-20T10:24:22;4.45;;;1.50;;
39776;SDS011;25453;48.162;14.510;2023-07-20T10:26:51;3.30;;;1.40;;
39776;SDS011;25453;48.162;14.510;2023-07-20T10:29:18;2.58;;;1.30;;
39776;SDS011;25453;48.162;14.510;2023-07-20T10:31:45;2.38;;;1.02;;
39776;SDS011;25453;48.162;14.510;2023-07-20T10:34:13;1.85;;;0.90;;
39776;SDS011;25453;48.162;14.510;2023-07-20T10:36:44;2.75;;;1.35;;
39776;SDS011;25453;48.162;14.510;2023-07-20T10:39:25;1.60;;;1.20;;
39776;SDS011;25453;48.162;14.510;2023-07-20T10:42:01;3.75;;;1.20;;
39776;SDS011;25453;48.162;14.510;2023-07-20T10:44:38;2.00;;;1.02;;
39776;SDS011;25453;48.162;14.510;2023-07-20T10:47:09;1.48;;;0.98;;
39776;SDS011;25453;48.162;14.510;2023-07-20T10:49:58;3.45;;;1.25;;
39776;SDS011;25453;48.162;14.510;2023-07-20T10:52:36;3.10;;;1.25;;
39776;SDS011;25453;48.162;14.510;2023-07-20T10:55:16;1.98;;;1.20;;
39776;SDS011;25453;48.162;14.510;2023-07-20T10:57:44;1.92;;;1.23;;
39776;SDS011;25453;48.162;14.510;2023-07-20T11:03:42;2.20;;;1.20;;
39776;SDS011;25453;48.162;14.510;2023-07-20T11:06:32;2.97;;;1.05;;
39776;SDS011;25453;48.162;14.510;2023-07-20T11:11:41;2.15;;;1.20;;
39776;SDS011;25453;48.162;14.510;2023-07-20T11:14:25;2.28;;;1.20;;
39776;SDS011;25453;48.162;14.510;2023-07-20T11:16:53;2.35;;;1.10;;
39776;SDS011;25453;48.162;14.510;2023-07-20T11:19:23;2.15;;;1.13;;
39776;SDS011;25453;48.162;14.510;2023-07-20T11:21:55;1.45;;;1.02;;
39776;SDS011;25453;48.162;14.510;2023-07-20T11:24:29;1.58;;;1.00;;
39776;SDS011;25453;48.162;14.510;2023-07-20T11:26:58;1.80;;;1.10;;
39776;SDS011;25453;48.162;14.510;2023-07-20T11:29:27;2.25;;;1.13;;
39776;SDS011;25453;48.162;14.510;2023-07-20T11:31:58;2.50;;;0.95;;
39776;SDS011;25453;48.162;14.510;2023-07-20T11:34:25;2.15;;;1.02;;
39776;SDS011;25453;48.162;14.510;2023-07-20T11:36:54;2.78;;;1.00;;
39776;SDS011;25453;48.162;14.510;2023-07-20T11:39:24;2.75;;;1.02;;
39776;SDS011;25453;48.162;14.510;2023-07-20T11:41:53;3.88;;;1.08;;
39776;SDS011;25453;48.162;14.510;2023-07-20T11:44:24;2.15;;;1.13;;
39776;SDS011;25453;48.162;14.510;2023-07-20T11:49:34;2.63;;;1.20;;
39776;SDS011;25453;48.162;14.510;2023-07-20T11:52:06;2.35;;;1.30;;
39776;SDS011;25453;48.162;14.510;2023-07-20T11:54:38;2.55;;;0.90;;
39776;SDS011;25453;48.162;14.510;2023-07-20T11:57:15;1.30;;;0.70;;
39776;SDS011;25453;48.162;14.510;2023-07-20T11:59:55;1.40;;;0.90;;
39776;SDS011;25453;48.162;14.510;2023-07-20T12:02:28;2.20;;;1.10;;
39776;SDS011;25453;48.162;14.510;2023-07-20T12:04:56;1.48;;;0.90;;
39776;SDS011;25453;48.162;14.510;2023-07-20T12:07:25;2.25;;;1.13;;
39776;SDS011;25453;48.162;14.510;2023-07-20T12:10:08;4.03;;;1.20;;
39776;SDS011;25453;48.162;14.510;2023-07-20T12:12:37;1.75;;;0.90;;
39776;SDS011;25453;48.162;14.510;2023-07-20T12:15:14;2.15;;;1.15;;
39776;SDS011;25453;48.162;14.510;2023-07-20T12:17:50;1.85;;;1.05;;
39776;SDS011;25453;48.162;14.510;2023-07-20T12:23:01;2.72;;;1.10;;
39776;SDS011;25453;48.162;14.510;2023-07-20T12:25:41;1.70;;;0.98;;
39776;SDS011;25453;48.162;14.510;2023-07-20T12:30:42;2.63;;;1.10;;
39776;SDS011;25453;48.162;14.510;2023-07-20T12:33:11;2.58;;;1.02;;
39776;SDS011;25453;48.162;14.510;2023-07-20T12:35:42;1.73;;;1.00;;
39776;SDS011;25453;48.162;14.510;2023-07-20T12:38:10;1.65;;;1.05;;
39776;SDS011;25453;48.162;14.510;2023-07-20T12:40:37;1.77;;;1.00;;
39776;SDS011;25453;48.162;14.510;2023-07-20T12:43:04;2.08;;;0.88;;
39776;SDS011;25453;48.162;14.510;2023-07-20T12:45:31;2.10;;;1.23;;
39776;SDS011;25453;48.162;14.510;2023-07-20T12:47:58;3.72;;;1.45;;
39776;SDS011;25453;48.162;14.510;2023-07-20T12:50:26;1.73;;;0.90;;
39776;SDS011;25453;48.162;14.510;2023-07-20T12:52:53;1.27;;;0.80;;
39776;SDS011;25453;48.162;14.510;2023-07-20T12:55:21;2.88;;;1.38;;
39776;SDS011;25453;48.162;14.510;2023-07-20T12:57:48;2.15;;;0.93;;
39776;SDS011;25453;48.162;14.510;2023-07-20T13:00:16;1.65;;;1.00;;
39776;SDS011;25453;48.162;14.510;2023-07-20T13:02:43;2.58;;;1.10;;
39776;SDS011;25453;48.162;14.510;2023-07-20T13:05:10;1.50;;;1.10;;
39776;SDS011;25453;48.162;14.510;2023-07-20T13:07:38;2.00;;;1.00;;
39776;SDS011;25453;48.162;14.510;2023-07-20T13:10:09;2.22;;;1.10;;
39776;SDS011;25453;48.162;14.510;2023-07-20T13:12:37;1.70;;;0.98;;
39776;SDS011;25453;48.162;14.510;2023-07-20T13:15:05;1.65;;;1.02;;
39776;SDS011;25453;48.162;14.510;2023-07-20T13:17:34;3.65;;;1.20;;
39776;SDS011;25453;48.162;14.510;2023-07-20T13:20:02;2.70;;;1.10;;
39776;SDS011;25453;48.162;14.510;2023-07-20T13:22:31;1.38;;;0.98;;
39776;SDS011;25453;48.162;14.510;2023-07-20T13:24:58;1.45;;;0.80;;
39776;SDS011;25453;48.162;14.510;2023-07-20T13:27:26;1.58;;;0.68;;
39776;SDS011;25453;48.162;14.510;2023-07-20T13:29:53;1.13;;;0.77;;
39776;SDS011;25453;48.162;14.510;2023-07-20T13:32:20;1.08;;;0.75;;
39776;SDS011;25453;48.162;14.510;2023-07-20T13:34:50;1.83;;;0.80;;
39776;SDS011;25453;48.162;14.510;2023-07-20T13:37:17;1.42;;;0.82;;
39776;SDS011;25453;48.162;14.510;2023-07-20T13:39:47;1.13;;;0.70;;
39776;SDS011;25453;48.162;14.510;2023-07-20T13:42:15;5.40;;;0.82;;
39776;SDS011;25453;48.162;14.510;2023-07-20T13:44:45;1.83;;;0.90;;
39776;SDS011;25453;48.162;14.510;2023-07-20T13:47:13;2.35;;;0.90;;
39776;SDS011;25453;48.162;14.510;2023-07-20T13:49:43;2.08;;;0.93;;
39776;SDS011;25453;48.162;14.510;2023-07-20T13:52:13;1.95;;;0.93;;
39776;SDS011;25453;48.162;14.510;2023-07-20T13:54:44;2.05;;;0.90;;
39776;SDS011;25453;48.162;14.510;2023-07-20T13:57:16;1.58;;;1.08;;
39776;SDS011;25453;48.162;14.510;2023-07-20T13:59:43;2.35;;;0.90;;
39776;SDS011;25453;48.162;14.510;2023-07-20T14:02:13;1.75;;;1.00;;
39776;SDS011;25453;48.162;14.510;2023-07-20T14:04:44;1.25;;;0.70;;
39776;SDS011;25453;48.162;14.510;2023-07-20T14:07:12;1.42;;;0.90;;
39776;SDS011;25453;48.162;14.510;2023-07-20T14:09:42;1.20;;;0.55;;
39776;SDS011;25453;48.162;14.510;2023-07-20T14:12:12;1.10;;;0.90;;
39776;SDS011;25453;48.162;14.510;2023-07-20T14:14:43;2.35;;;1.02;;
39776;SDS011;25453;48.162;14.510;2023-07-20T14:17:10;1.52;;;0.90;;
39776;SDS011;25453;48.162;14.510;2023-07-20T14:19:38;1.30;;;0.68;;
39776;SDS011;25453;48.162;14.510;2023-07-20T14:22:06;2.05;;;0.80;;
39776;SDS011;25453;48.162;14.510;2023-07-20T14:24:34;1.67;;;0.80;;
39776;SDS011;25453;48.162;14.510;2023-07-20T14:27:02;1.52;;;1.13;;
39776;SDS011;25453;48.162;14.510;2023-07-20T14:29:29;3.28;;;0.98;;
39776;SDS011;25453;48.162;14.510;2023-07-20T14:31:58;2.20;;;0.90;;
39776;SDS011;25453;48.162;14.510;2023-07-20T14:34:25;1.95;;;1.00;;
39776;SDS011;25453;48.162;14.510;2023-07-20T14:36:52;1.60;;;1.20;;
39776;SDS011;25453;48.162;14.510;2023-07-20T14:39:20;2.25;;;0.95;;
39776;SDS011;25453;48.162;14.510;2023-07-20T14:41:48;1.67;;;1.17;;
39776;SDS011;25453;48.162;14.510;2023-07-20T14:44:16;2.25;;;1.00;;
39776;SDS011;25453;48.162;14.510;2023-07-20T14:46:44;2.70;;;0.75;;
39776;SDS011;25453;48.162;14.510;2023-07-20T14:49:27;1.73;;;0.77;;
39776;SDS011;25453;48.162;14.510;2023-07-20T14:51:54;3.42;;;0.95;;
39776;SDS011;25453;48.162;14.510;2023-07-20T14:54:25;1.52;;;0.70;;
39776;SDS011;25453;48.162;14.510;2023-07-20T14:56:52;1.85;;;0.90;;
39776;SDS011;25453;48.162;14.510;2023-07-20T14:59:20;1.92;;;0.90;;
39776;SDS011;25453;48.162;14.510;2023-07-20T15:01:47;1.23;;;0.75;;
39776;SDS011;25453;48.162;14.510;2023-07-20T15:04:14;2.35;;;1.08;;
39776;SDS011;25453;48.162;14.510;2023-07-20T15:06:42;1.48;;;0.70;;
39776;SDS011;25453;48.162;14.510;2023-07-20T15:09:09;0.93;;;0.60;;